Time;durP1;ratioP1;P1;durP2;ratioP2;P2;SDS_P1;SDS_P2;PMS_P1;PMS_P2;Temp;Humidity;BMP_temperature;BMP_pressure;BME280_temperature;BME280_humidity;BME280_pressure;Samples;Min_cycle;Max_cycle;Signal;HPM_P1;HPM_P2
2023/03/06 20:06:38;;;;;;;20.73;8.10;;;;;;;;;;5128444;27;20387;-62
2023/03/06 20:09:06;;;;;;;16.27;7.57;;;;;;;;;;5108318;28;20402;-62
2023/03/06 20:11:32;;;;;;;15.75;7.38;;;;;;;;;;5088073;28;20444;-71
2023/03/06 20:13:59;;;;;;;14.75;7.07;;;;;;;;;;5087868;28;20025;-65
2023/03/06 20:16:26;;;;;;;19.55;7.50;;;;;;;;;;5087407;28;20059;-61
2023/03/06 20:18:53;;;;;;;19.23;7.90;;;;;;;;;;5087993;28;20043;-61
2023/03/06 20:21:20;;;;;;;14.02;6.75;;;;;;;;;;5087512;28;20031;-62
2023/03/06 20:23:46;;;;;;;14.05;7.53;;;;;;;;;;5087540;28;20028;-65
2023/03/06 20:26:13;;;;;;;14.25;7.05;;;;;;;;;;5073169;28;20048;-66
2023/03/06 20:28:40;;;;;;;17.10;8.07;;;;;;;;;;5067267;28;20051;-63
2023/03/06 20:31:07;;;;;;;14.45;7.22;;;;;;;;;;5067568;28;20036;-64
2023/03/06 20:33:33;;;;;;;15.35;8.30;;;;;;;;;;5067537;28;20025;-64
2023/03/06 20:35:59;;;;;;;14.45;7.28;;;;;;;;;;5067180;28;20029;-74
2023/03/06 20:38:25;;;;;;;15.57;7.88;;;;;;;;;;5067370;28;20085;-60
2023/03/06 20:40:56;;;;;;;16.52;8.40;;;;;;;;;;5067002;28;20056;-61
2023/03/06 20:43:22;;;;;;;18.08;8.65;;;;;;;;;;5067326;28;20056;-70
2023/03/06 20:45:55;;;;;;;18.80;8.70;;;;;;;;;;5066754;28;20033;-77
2023/03/06 20:48:21;;;;;;;20.40;9.32;;;;;;;;;;5067063;28;20762;-71
2023/03/06 20:50:57;;;;;;;22.55;9.05;;;;;;;;;;5066721;28;20023;-59
2023/03/06 20:53:23;;;;;;;26.52;10.80;;;;;;;;;;5066506;28;20519;-59
2023/03/06 20:55:51;;;;;;;30.40;12.02;;;;;;;;;;5065995;28;20058;-65
2023/03/06 20:58:17;;;;;;;28.35;12.65;;;;;;;;;;5066697;28;20021;-62
2023/03/06 21:00:43;;;;;;;33.97;13.25;;;;;;;;;;5066944;28;20155;-64
2023/03/06 21:03:09;;;;;;;35.95;14.63;;;;;;;;;;5066000;28;20102;-71
2023/03/06 21:05:35;;;;;;;30.98;13.55;;;;;;;;;;5054703;28;20508;-68
2023/03/06 21:08:01;;;;;;;29.20;13.98;;;;;;;;;;5046432;28;20112;-66
2023/03/06 21:10:28;;;;;;;29.85;13.98;;;;;;;;;;5047332;28;20027;-61
2023/03/06 21:12:54;;;;;;;26.50;12.88;;;;;;;;;;5046909;28;20018;-62
2023/03/06 21:15:20;;;;;;;22.02;11.32;;;;;;;;;;5046910;28;20025;-64
2023/03/06 21:17:46;;;;;;;27.85;12.02;;;;;;;;;;5033969;28;20029;-63
2023/03/06 21:20:12;;;;;;;24.50;11.55;;;;;;;;;;5035584;28;20072;-63
2023/03/06 21:22:38;;;;;;;23.48;12.75;;;;;;;;;;5041651;28;20018;-62
2023/03/06 21:25:04;;;;;;;25.10;13.20;;;;;;;;;;5033777;28;20039;-69
2023/03/06 21:27:30;;;;;;;27.67;13.15;;;;;;;;;;5033233;28;20025;-63
2023/03/06 21:29:56;;;;;;;28.58;13.15;;;;;;;;;;5033219;28;20025;-64
2023/03/06 21:32:22;;;;;;;27.25;13.38;;;;;;;;;;5033515;28;20135;-70
2023/03/06 21:34:48;;;;;;;27.35;12.70;;;;;;;;;;5033183;28;20392;-74
2023/03/06 21:37:14;;;;;;;23.00;11.85;;;;;;;;;;5015331;28;20381;-62
2023/03/06 21:39:40;;;;;;;22.20;10.85;;;;;;;;;;5033179;28;20041;-63
2023/03/06 21:42:06;;;;;;;21.50;11.18;;;;;;;;;;5015367;28;20495;-63
2023/03/06 21:44:32;;;;;;;22.83;11.27;;;;;;;;;;5032716;28;20117;-66
2023/03/06 21:46:58;;;;;;;18.80;11.10;;;;;;;;;;5015113;28;20082;-63
2023/03/06 21:49:25;;;;;;;24.05;11.63;;;;;;;;;;5032994;28;20384;-63
2023/03/06 21:51:51;;;;;;;24.23;10.85;;;;;;;;;;5046777;28;20033;-64
2023/03/06 21:54:18;;;;;;;21.88;11.45;;;;;;;;;;5039483;28;20488;-62
2023/03/06 21:56:44;;;;;;;20.17;11.18;;;;;;;;;;5042817;28;20499;-64
2023/03/06 21:59:10;;;;;;;20.92;9.85;;;;;;;;;;5052349;28;20078;-71
2023/03/06 22:01:36;;;;;;;18.38;9.98;;;;;;;;;;5041502;28;20025;-73
2023/03/06 22:04:02;;;;;;;22.05;12.18;;;;;;;;;;5041956;28;20025;-64
2023/03/06 22:06:29;;;;;;;21.98;12.15;;;;;;;;;;5056663;28;20125;-63
2023/03/06 22:08:56;;;;;;;22.58;11.80;;;;;;;;;;5051310;28;20567;-70
2023/03/06 22:11:23;;;;;;;26.58;11.98;;;;;;;;;;5052786;28;20044;-67
2023/03/06 22:13:49;;;;;;;23.05;11.02;;;;;;;;;;5052410;28;20025;-75
2023/03/06 22:16:16;;;;;;;19.85;10.38;;;;;;;;;;5054734;28;20035;-65
2023/03/06 22:18:45;;;;;;;22.55;12.50;;;;;;;;;;5060203;28;20029;-64
2023/03/06 22:21:12;;;;;;;22.88;12.13;;;;;;;;;;5057815;28;20067;-64
2023/03/06 22:23:41;;;;;;;23.75;10.88;;;;;;;;;;5052090;28;20451;-73
2023/03/06 22:26:10;;;;;;;21.73;11.75;;;;;;;;;;5052192;28;20484;-75
2023/03/06 22:28:36;;;;;;;21.90;10.77;;;;;;;;;;5051821;28;20021;-73
2023/03/06 22:31:03;;;;;;;22.33;11.60;;;;;;;;;;5059482;28;20070;-71
2023/03/06 22:33:29;;;;;;;28.45;12.77;;;;;;;;;;5061581;28;20020;-64
2023/03/06 22:36:01;;;;;;;28.75;12.70;;;;;;;;;;5060134;28;20037;-63
2023/03/06 22:38:27;;;;;;;30.88;13.35;;;;;;;;;;5059787;28;20036;-61
2023/03/06 22:40:56;;;;;;;24.45;12.65;;;;;;;;;;5058803;28;20116;-73
2023/03/06 22:43:22;;;;;;;27.70;12.65;;;;;;;;;;5052113;28;20025;-61
2023/03/06 22:45:48;;;;;;;26.10;12.73;;;;;;;;;;5053873;28;20044;-74
2023/03/06 22:48:14;;;;;;;27.38;12.73;;;;;;;;;;5059195;28;20476;-62
2023/03/06 22:50:40;;;;;;;24.50;13.63;;;;;;;;;;5061770;28;20052;-70
2023/03/06 22:53:06;;;;;;;30.80;16.20;;;;;;;;;;5058544;28;20081;-67
2023/03/06 22:55:34;;;;;;;35.22;17.25;;;;;;;;;;5058963;28;20432;-68
2023/03/06 22:58:00;;;;;;;31.05;16.13;;;;;;;;;;5069108;28;20380;-69
2023/03/06 23:00:26;;;;;;;35.35;16.70;;;;;;;;;;5071535;28;20033;-64
2023/03/06 23:02:52;;;;;;;31.40;16.55;;;;;;;;;;5071692;28;20028;-72
2023/03/06 23:05:18;;;;;;;36.72;17.83;;;;;;;;;;5061832;28;20094;-63
2023/03/06 23:07:44;;;;;;;34.53;17.27;;;;;;;;;;5051082;28;20106;-67
2023/03/06 23:10:10;;;;;;;34.28;18.13;;;;;;;;;;5051502;28;20086;-71
2023/03/06 23:12:36;;;;;;;33.28;17.30;;;;;;;;;;5051386;28;20086;-62
2023/03/06 23:15:03;;;;;;;31.60;17.15;;;;;;;;;;5051713;28;20025;-63
2023/03/06 23:17:29;;;;;;;30.25;16.90;;;;;;;;;;5050826;28;20040;-70
2023/03/06 23:19:55;;;;;;;33.83;17.15;;;;;;;;;;5040267;28;20029;-67
2023/03/06 23:22:21;;;;;;;32.90;17.70;;;;;;;;;;5042174;28;20029;-62
2023/03/06 23:24:47;;;;;;;34.97;18.80;;;;;;;;;;5035348;28;20041;-61
2023/03/06 23:27:14;;;;;;;34.10;17.83;;;;;;;;;;5031526;28;20100;-65
2023/03/06 23:29:40;;;;;;;34.78;18.58;;;;;;;;;;5031534;28;20586;-72
2023/03/06 23:32:06;;;;;;;34.17;18.38;;;;;;;;;;5031203;28;20469;-60
2023/03/06 23:34:32;;;;;;;30.30;17.27;;;;;;;;;;5041942;28;20036;-60
2023/03/06 23:36:58;;;;;;;34.97;18.67;;;;;;;;;;5051137;28;20025;-61
